sensor_id;sensor_type;location;lat;lon;timestamp;pressure;altitude;pressure_sealevel;temperature;humidity
20987;BME280;10652;50.306;8.570;2022-11-15T00:02:03;97619.69;;;10.59;100.00
20987;BME280;10652;50.306;8.570;2022-11-15T00:06:25;97622.09;;;10.63;100.00
20987;BME280;10652;50.306;8.570;2022-11-15T00:10:59;97617.28;;;10.73;100.00
20987;BME280;10652;50.306;8.570;2022-11-15T00:15:20;97612.75;;;10.77;100.00
20987;BME280;10652;50.306;8.570;2022-11-15T00:19:40;97611.72;;;10.81;100.00
20987;BME280;10652;50.306;8.570;2022-11-15T00:24:01;97601.06;;;10.84;100.00
20987;BME280;10652;50.306;8.570;2022-11-15T00:28:21;97599.94;;;10.89;100.00
20987;BME280;10652;50.306;8.570;2022-11-15T00:32:42;97600.81;;;10.90;100.00
20987;BME280;10652;50.306;8.570;2022-11-15T00:37:03;97597.22;;;10.91;100.00
20987;BME280;10652;50.306;8.570;2022-11-15T00:41:24;97604.13;;;10.93;100.00
20987;BME280;10652;50.306;8.570;2022-11-15T00:45:44;97602.25;;;10.95;100.00
20987;BME280;10652;50.306;8.570;2022-11-15T00:50:05;97593.53;;;10.95;100.00
20987;BME280;10652;50.306;8.570;2022-11-15T00:54:26;97580.31;;;10.98;100.00
20987;BME280;10652;50.306;8.570;2022-11-15T00:58:46;97579.25;;;11.02;100.00
20987;BME280;10652;50.306;8.570;2022-11-15T01:03:06;97576.47;;;11.05;100.00
20987;BME280;10652;50.306;8.570;2022-11-15T01:07:27;97581.50;;;11.09;100.00
20987;BME280;10652;50.306;8.570;2022-11-15T01:11:47;97572.66;;;11.12;100.00
20987;BME280;10652;50.306;8.570;2022-11-15T01:16:10;97573.50;;;11.12;100.00
20987;BME280;10652;50.306;8.570;2022-11-15T01:20:32;97568.16;;;11.14;100.00
20987;BME280;10652;50.306;8.570;2022-11-15T01:24:52;97570.78;;;11.14;100.00
20987;BME280;10652;50.306;8.570;2022-11-15T01:29:13;97578.34;;;11.20;100.00
20987;BME280;10652;50.306;8.570;2022-11-15T01:33:35;97571.47;;;11.18;100.00
20987;BME280;10652;50.306;8.570;2022-11-15T01:37:58;97568.16;;;11.14;100.00
20987;BME280;10652;50.306;8.570;2022-11-15T01:42:19;97569.25;;;11.10;100.00
20987;BME280;10652;50.306;8.570;2022-11-15T01:46:47;97552.88;;;11.05;100.00
20987;BME280;10652;50.306;8.570;2022-11-15T01:51:11;97567.91;;;11.01;100.00
20987;BME280;10652;50.306;8.570;2022-11-15T01:55:33;97559.19;;;11.01;100.00
20987;BME280;10652;50.306;8.570;2022-11-15T01:59:55;97545.94;;;11.04;100.00
20987;BME280;10652;50.306;8.570;2022-11-15T02:04:21;97545.81;;;11.07;100.00
20987;BME280;10652;50.306;8.570;2022-11-15T02:08:44;97543.19;;;11.07;100.00
20987;BME280;10652;50.306;8.570;2022-11-15T02:13:05;97551.13;;;11.05;100.00
20987;BME280;10652;50.306;8.570;2022-11-15T02:26:37;97542.41;;;11.05;100.00
20987;BME280;10652;50.306;8.570;2022-11-15T02:31:17;97530.09;;;11.07;100.00
20987;BME280;10652;50.306;8.570;2022-11-15T02:35:44;97523.00;;;11.09;100.00
20987;BME280;10652;50.306;8.570;2022-11-15T02:40:27;97522.00;;;11.11;100.00
20987;BME280;10652;50.306;8.570;2022-11-15T02:44:53;97520.31;;;11.10;100.00
20987;BME280;10652;50.306;8.570;2022-11-15T02:49:16;97513.47;;;11.08;100.00
20987;BME280;10652;50.306;8.570;2022-11-15T02:53:37;97517.13;;;11.04;100.00
20987;BME280;10652;50.306;8.570;2022-11-15T03:02:51;97515.53;;;11.01;100.00
20987;BME280;10652;50.306;8.570;2022-11-15T03:07:18;97523.44;;;11.00;100.00
20987;BME280;10652;50.306;8.570;2022-11-15T03:11:51;97516.38;;;11.02;100.00
20987;BME280;10652;50.306;8.570;2022-11-15T03:21:07;97509.59;;;10.98;100.00
20987;BME280;10652;50.306;8.570;2022-11-15T03:25:29;97508.66;;;10.99;100.00
20987;BME280;10652;50.306;8.570;2022-11-15T03:29:55;97497.19;;;11.01;100.00
20987;BME280;10652;50.306;8.570;2022-11-15T03:34:32;97514.66;;;11.01;100.00
20987;BME280;10652;50.306;8.570;2022-11-15T03:38:59;97514.50;;;11.04;100.00
20987;BME280;10652;50.306;8.570;2022-11-15T03:43:55;97502.03;;;11.09;100.00
20987;BME280;10652;50.306;8.570;2022-11-15T03:48:23;97507.13;;;11.12;100.00
20987;BME280;10652;50.306;8.570;2022-11-15T03:52:45;97503.44;;;11.16;100.00
20987;BME280;10652;50.306;8.570;2022-11-15T03:57:07;97506.97;;;11.15;100.00
20987;BME280;10652;50.306;8.570;2022-11-15T04:01:28;97498.44;;;11.11;100.00
20987;BME280;10652;50.306;8.570;2022-11-15T04:05:49;97498.31;;;11.13;100.00
20987;BME280;10652;50.306;8.570;2022-11-15T04:10:12;97498.31;;;11.13;100.00
20987;BME280;10652;50.306;8.570;2022-11-15T04:14:33;97500.03;;;11.14;100.00
20987;BME280;10652;50.306;8.570;2022-11-15T04:18:53;97517.69;;;11.10;100.00
20987;BME280;10652;50.306;8.570;2022-11-15T04:23:33;97510.84;;;11.08;100.00
20987;BME280;10652;50.306;8.570;2022-11-15T04:28:12;97502.88;;;11.09;100.00
20987;BME280;10652;50.306;8.570;2022-11-15T04:32:33;97500.19;;;11.11;100.00
20987;BME280;10652;50.306;8.570;2022-11-15T04:36:53;97493.41;;;11.07;100.00
20987;BME280;10652;50.306;8.570;2022-11-15T04:41:32;97496.41;;;10.99;100.00
20987;BME280;10652;50.306;8.570;2022-11-15T04:45:52;97487.72;;;10.99;100.00
20987;BME280;10652;50.306;8.570;2022-11-15T04:50:14;97479.84;;;10.99;100.00
20987;BME280;10652;50.306;8.570;2022-11-15T04:54:35;97466.59;;;11.02;100.00
20987;BME280;10652;50.306;8.570;2022-11-15T04:58:55;97474.38;;;11.03;100.00
20987;BME280;10652;50.306;8.570;2022-11-15T05:03:16;97460.72;;;10.97;100.00
20987;BME280;10652;50.306;8.570;2022-11-15T05:07:55;97467.66;;;10.81;100.00
20987;BME280;10652;50.306;8.570;2022-11-15T05:12:16;97464.09;;;10.64;100.00
20987;BME280;10652;50.306;8.570;2022-11-15T05:16:37;97455.81;;;10.55;100.00
20987;BME280;10652;50.306;8.570;2022-11-15T05:21:05;97442.31;;;10.45;100.00
20987;BME280;10652;50.306;8.570;2022-11-15T05:25:26;97444.16;;;10.26;100.00
20987;BME280;10652;50.306;8.570;2022-11-15T05:29:47;97445.69;;;10.11;100.00
20987;BME280;10652;50.306;8.570;2022-11-15T05:34:07;97436.84;;;9.95;100.00
20987;BME280;10652;50.306;8.570;2022-11-15T05:38:28;97439.81;;;9.88;100.00
20987;BME280;10652;50.306;8.570;2022-11-15T05:42:49;97439.81;;;9.88;100.00
20987;BME280;10652;50.306;8.570;2022-11-15T05:47:13;97438.00;;;9.90;100.00
20987;BME280;10652;50.306;8.570;2022-11-15T05:51:37;97431.47;;;9.98;100.00
20987;BME280;10652;50.306;8.570;2022-11-15T05:55:58;97428.72;;;10.01;100.00
20987;BME280;10652;50.306;8.570;2022-11-15T06:00:18;97432.03;;;10.05;100.00
20987;BME280;10652;50.306;8.570;2022-11-15T06:04:39;97435.16;;;10.13;100.00
20987;BME280;10652;50.306;8.570;2022-11-15T06:09:00;97440.00;;;10.22;100.00
20987;BME280;10652;50.306;8.570;2022-11-15T06:13:21;97433.31;;;10.34;100.00
20987;BME280;10652;50.306;8.570;2022-11-15T06:17:41;97437.53;;;10.36;100.00
20987;BME280;10652;50.306;8.570;2022-11-15T06:22:02;97450.56;;;10.38;100.00
20987;BME280;10652;50.306;8.570;2022-11-15T06:26:23;97450.97;;;10.47;100.00
20987;BME280;10652;50.306;8.570;2022-11-15T06:30:43;97452.44;;;10.53;100.00
20987;BME280;10652;50.306;8.570;2022-11-15T06:35:11;97466.06;;;10.59;100.00
20987;BME280;10652;50.306;8.570;2022-11-15T06:39:32;97464.94;;;10.65;100.00
20987;BME280;10652;50.306;8.570;2022-11-15T06:43:52;97467.03;;;10.76;100.00
20987;BME280;10652;50.306;8.570;2022-11-15T06:48:13;97460.50;;;10.84;100.00
20987;BME280;10652;50.306;8.570;2022-11-15T06:52:34;97444.41;;;10.92;100.00
20987;BME280;10652;50.306;8.570;2022-11-15T06:56:54;97443.19;;;10.99;100.00
20987;BME280;10652;50.306;8.570;2022-11-15T07:01:15;97444.72;;;11.03;100.00
20987;BME280;10652;50.306;8.570;2022-11-15T07:05:35;97448.56;;;10.96;100.00
20987;BME280;10652;50.306;8.570;2022-11-15T07:09:56;97452.25;;;10.92;100.00
20987;BME280;10652;50.306;8.570;2022-11-15T07:14:17;97454.66;;;10.96;100.00
20987;BME280;10652;50.306;8.570;2022-11-15T07:18:39;97451.03;;;11.16;100.00
20987;BME280;10652;50.306;8.570;2022-11-15T07:23:04;97449.63;;;11.43;100.00
20987;BME280;10652;50.306;8.570;2022-11-15T07:27:25;97449.88;;;11.72;100.00
20987;BME280;10652;50.306;8.570;2022-11-15T07:31:46;97456.84;;;11.88;100.00
20987;BME280;10652;50.306;8.570;2022-11-15T07:36:06;97445.53;;;12.03;100.00
20987;BME280;10652;50.306;8.570;2022-11-15T07:40:30;97442.91;;;12.19;100.00
20987;BME280;10652;50.306;8.570;2022-11-15T07:44:52;97447.56;;;12.30;100.00
20987;BME280;10652;50.306;8.570;2022-11-15T07:49:12;97449.34;;;12.45;100.00
20987;BME280;10652;50.306;8.570;2022-11-15T07:53:33;97461.44;;;12.63;100.00
20987;BME280;10652;50.306;8.570;2022-11-15T07:58:03;97466.66;;;12.79;100.00
20987;BME280;10652;50.306;8.570;2022-11-15T08:02:24;97463.97;;;12.80;100.00
20987;BME280;10652;50.306;8.570;2022-11-15T08:06:49;97462.34;;;12.78;100.00
20987;BME280;10652;50.306;8.570;2022-11-15T08:11:10;97455.81;;;12.85;100.00
20987;BME280;10652;50.306;8.570;2022-11-15T08:15:31;97456.56;;;12.87;100.00
20987;BME280;10652;50.306;8.570;2022-11-15T08:19:52;97451.22;;;12.88;100.00
20987;BME280;10652;50.306;8.570;2022-11-15T08:24:14;97449.34;;;12.90;100.00
20987;BME280;10652;50.306;8.570;2022-11-15T08:28:35;97456.97;;;12.95;100.00
20987;BME280;10652;50.306;8.570;2022-11-15T08:32:57;97449.66;;;13.00;100.00
20987;BME280;10652;50.306;8.570;2022-11-15T08:37:18;97447.09;;;13.14;100.00
20987;BME280;10652;50.306;8.570;2022-11-15T08:41:38;97452.75;;;13.22;100.00
20987;BME280;10652;50.306;8.570;2022-11-15T08:45:59;97446.75;;;13.20;99.00
20987;BME280;10652;50.306;8.570;2022-11-15T08:50:19;97439.44;;;13.25;99.05
20987;BME280;10652;50.306;8.570;2022-11-15T08:54:40;97446.94;;;13.31;97.97
20987;BME280;10652;50.306;8.570;2022-11-15T08:59:01;97452.03;;;13.34;97.17
20987;BME280;10652;50.306;8.570;2022-11-15T09:03:21;97452.13;;;13.33;95.98
20987;BME280;10652;50.306;8.570;2022-11-15T09:07:42;97455.03;;;13.28;95.02
20987;BME280;10652;50.306;8.570;2022-11-15T09:12:04;97458.00;;;13.22;94.05
20987;BME280;10652;50.306;8.570;2022-11-15T09:16:25;97447.91;;;13.30;94.76
20987;BME280;10652;50.306;8.570;2022-11-15T09:20:45;97449.88;;;13.41;93.95
20987;BME280;10652;50.306;8.570;2022-11-15T09:25:06;97446.13;;;13.45;93.48
20987;BME280;10652;50.306;8.570;2022-11-15T09:29:30;97436.72;;;13.41;93.02
20987;BME280;10652;50.306;8.570;2022-11-15T09:33:51;97441.16;;;13.55;92.95
20987;BME280;10652;50.306;8.570;2022-11-15T09:38:11;97440.22;;;13.56;93.46
20987;BME280;10652;50.306;8.570;2022-11-15T09:52:18;97428.72;;;14.13;92.57
20987;BME280;10652;50.306;8.570;2022-11-15T09:56:23;97428.53;;;14.16;91.34
20987;BME280;10652;50.306;8.570;2022-11-15T10:00:38;97430.22;;;14.17;91.04
20987;BME280;10652;50.306;8.570;2022-11-15T10:04:49;97436.53;;;14.15;90.36
20987;BME280;10652;50.306;8.570;2022-11-15T10:13:03;97419.53;;;13.92;90.21
20987;BME280;10652;50.306;8.570;2022-11-15T10:25:55;97387.91;;;14.20;90.55
20987;BME280;10652;50.306;8.570;2022-11-15T10:30:12;97398.13;;;14.39;89.67
20987;BME280;10652;50.306;8.570;2022-11-15T10:34:17;97397.16;;;14.40;88.53
20987;BME280;10652;50.306;8.570;2022-11-15T10:38:20;97396.06;;;14.44;88.78
20987;BME280;10652;50.306;8.570;2022-11-15T10:42:28;97396.28;;;14.54;88.34
20987;BME280;10652;50.306;8.570;2022-11-15T10:46:30;97395.38;;;14.67;87.69
20987;BME280;10652;50.306;8.570;2022-11-15T10:50:49;97379.06;;;14.75;87.64
20987;BME280;10652;50.306;8.570;2022-11-15T10:55:28;97368.94;;;14.69;86.46
20987;BME280;10652;50.306;8.570;2022-11-15T10:59:28;97352.78;;;14.61;87.01
20987;BME280;10652;50.306;8.570;2022-11-15T11:03:40;97339.63;;;14.61;87.06
20987;BME280;10652;50.306;8.570;2022-11-15T11:07:58;97333.25;;;14.51;87.06
20987;BME280;10652;50.306;8.570;2022-11-15T11:12:09;97325.34;;;14.51;88.37
20987;BME280;10652;50.306;8.570;2022-11-15T11:20:37;97315.91;;;14.61;88.70
20987;BME280;10652;50.306;8.570;2022-11-15T11:34:00;97285.25;;;14.85;88.35
20987;BME280;10652;50.306;8.570;2022-11-15T11:43:14;97278.69;;;15.29;87.45
20987;BME280;10652;50.306;8.570;2022-11-15T11:47:31;97277.16;;;15.50;84.96
20987;BME280;10652;50.306;8.570;2022-11-15T11:51:43;97275.94;;;15.43;83.85
20987;BME280;10652;50.306;8.570;2022-11-15T11:55:50;97281.94;;;15.32;82.99
20987;BME280;10652;50.306;8.570;2022-11-15T11:59:58;97284.09;;;15.14;83.72
20987;BME280;10652;50.306;8.570;2022-11-15T12:13:07;97269.75;;;14.93;85.46
20987;BME280;10652;50.306;8.570;2022-11-15T12:17:12;97261.63;;;14.96;85.47
20987;BME280;10652;50.306;8.570;2022-11-15T12:29:48;97240.31;;;15.25;83.66
20987;BME280;10652;50.306;8.570;2022-11-15T12:33:55;97234.38;;;15.34;83.68
20987;BME280;10652;50.306;8.570;2022-11-15T12:38:04;97247.66;;;15.32;83.12
20987;BME280;10652;50.306;8.570;2022-11-15T12:59:00;97226.00;;;14.65;85.52
20987;BME280;10652;50.306;8.570;2022-11-15T13:03:18;97217.25;;;14.65;86.62
20987;BME280;10652;50.306;8.570;2022-11-15T13:11:46;97203.13;;;14.79;86.68
20987;BME280;10652;50.306;8.570;2022-11-15T13:15:55;97204.50;;;14.72;86.72
20987;BME280;10652;50.306;8.570;2022-11-15T13:24:13;97197.75;;;14.55;86.88
20987;BME280;10652;50.306;8.570;2022-11-15T13:28:30;97185.81;;;14.37;88.25
20987;BME280;10652;50.306;8.570;2022-11-15T13:32:33;97176.00;;;14.26;89.34
20987;BME280;10652;50.306;8.570;2022-11-15T13:36:35;97178.94;;;14.21;90.01
20987;BME280;10652;50.306;8.570;2022-11-15T13:40:37;97176.19;;;14.10;90.51
20987;BME280;10652;50.306;8.570;2022-11-15T13:44:39;97182.81;;;14.03;91.92
20987;BME280;10652;50.306;8.570;2022-11-15T13:48:42;97179.22;;;14.04;92.16
20987;BME280;10652;50.306;8.570;2022-11-15T13:52:45;97172.16;;;14.05;92.34
20987;BME280;10652;50.306;8.570;2022-11-15T13:56:58;97162.16;;;13.97;92.34
20987;BME280;10652;50.306;8.570;2022-11-15T14:01:03;97163.41;;;13.92;92.68
20987;BME280;10652;50.306;8.570;2022-11-15T14:05:18;97157.41;;;13.90;93.58
20987;BME280;10652;50.306;8.570;2022-11-15T14:13:33;97137.16;;;13.90;94.01
20987;BME280;10652;50.306;8.570;2022-11-15T14:17:37;97138.16;;;13.89;94.25
20987;BME280;10652;50.306;8.570;2022-11-15T14:26:31;97137.59;;;13.84;94.51
20987;BME280;10652;50.306;8.570;2022-11-15T14:30:33;97130.19;;;13.76;94.95
20987;BME280;10652;50.306;8.570;2022-11-15T14:34:35;97121.03;;;13.69;95.40
20987;BME280;10652;50.306;8.570;2022-11-15T14:38:37;97105.66;;;13.63;96.05
20987;BME280;10652;50.306;8.570;2022-11-15T14:42:39;97095.44;;;13.59;96.22
20987;BME280;10652;50.306;8.570;2022-11-15T14:46:42;97088.81;;;13.53;96.89
20987;BME280;10652;50.306;8.570;2022-11-15T14:50:44;97094.38;;;13.49;97.22
20987;BME280;10652;50.306;8.570;2022-11-15T14:54:46;97079.00;;;13.43;97.80
20987;BME280;10652;50.306;8.570;2022-11-15T14:58:48;97073.72;;;13.43;98.12
20987;BME280;10652;50.306;8.570;2022-11-15T15:02:52;97068.69;;;13.40;98.10
20987;BME280;10652;50.306;8.570;2022-11-15T15:06:55;97055.19;;;13.31;98.11
20987;BME280;10652;50.306;8.570;2022-11-15T15:10:57;97051.06;;;13.27;98.31
20987;BME280;10652;50.306;8.570;2022-11-15T15:14:59;97048.66;;;13.24;99.08
20987;BME280;10652;50.306;8.570;2022-11-15T15:19:01;97041.69;;;13.23;99.53
20987;BME280;10652;50.306;8.570;2022-11-15T15:23:03;97040.22;;;13.19;100.00
20987;BME280;10652;50.306;8.570;2022-11-15T15:27:05;97030.84;;;13.15;100.00
20987;BME280;10652;50.306;8.570;2022-11-15T15:31:08;97026.88;;;13.08;100.00
20987;BME280;10652;50.306;8.570;2022-11-15T15:35:15;97025.53;;;13.03;100.00
20987;BME280;10652;50.306;8.570;2022-11-15T15:39:17;97013.63;;;12.97;100.00
20987;BME280;10652;50.306;8.570;2022-11-15T15:43:19;97006.25;;;12.89;100.00
20987;BME280;10652;50.306;8.570;2022-11-15T15:47:23;97004.09;;;12.82;100.00
20987;BME280;10652;50.306;8.570;2022-11-15T15:51:25;97004.31;;;12.79;100.00
20987;BME280;10652;50.306;8.570;2022-11-15T15:55:27;97007.88;;;12.78;100.00
20987;BME280;10652;50.306;8.570;2022-11-15T15:59:30;97001.69;;;12.79;100.00
20987;BME280;10652;50.306;8.570;2022-11-15T16:03:32;96992.09;;;12.78;100.00
20987;BME280;10652;50.306;8.570;2022-11-15T16:07:34;96990.41;;;12.77;100.00
20987;BME280;10652;50.306;8.570;2022-11-15T16:11:36;96976.25;;;12.79;100.00
20987;BME280;10652;50.306;8.570;2022-11-15T16:15:38;96972.56;;;12.82;100.00
20987;BME280;10652;50.306;8.570;2022-11-15T16:19:40;96960.59;;;12.78;100.00
20987;BME280;10652;50.306;8.570;2022-11-15T16:23:42;96963.22;;;12.78;100.00
20987;BME280;10652;50.306;8.570;2022-11-15T16:27:44;96960.59;;;12.78;100.00
20987;BME280;10652;50.306;8.570;2022-11-15T16:31:47;96962.47;;;12.76;100.00
20987;BME280;10652;50.306;8.570;2022-11-15T16:35:50;96951.13;;;12.75;100.00
20987;BME280;10652;50.306;8.570;2022-11-15T16:39:52;96951.97;;;12.76;100.00
20987;BME280;10652;50.306;8.570;2022-11-15T16:44:01;96949.34;;;12.76;100.00
20987;BME280;10652;50.306;8.570;2022-11-15T16:48:04;96960.78;;;12.75;100.00
20987;BME280;10652;50.306;8.570;2022-11-15T16:52:06;96952.91;;;12.75;100.00
20987;BME280;10652;50.306;8.570;2022-11-15T16:56:28;96969.41;;;12.77;100.00
20987;BME280;10652;50.306;8.570;2022-11-15T17:00:30;96961.63;;;12.75;100.00
20987;BME280;10652;50.306;8.570;2022-11-15T17:04:33;96969.41;;;12.77;100.00
20987;BME280;10652;50.306;8.570;2022-11-15T17:08:35;96965.00;;;12.77;100.00
20987;BME280;10652;50.306;8.570;2022-11-15T17:12:37;96960.59;;;12.78;100.00
20987;BME280;10652;50.306;8.570;2022-11-15T17:16:39;96956.25;;;12.77;100.00
20987;BME280;10652;50.306;8.570;2022-11-15T17:20:43;96940.00;;;12.72;100.00
20987;BME280;10652;50.306;8.570;2022-11-15T17:24:45;96932.41;;;12.67;99.61
20987;BME280;10652;50.306;8.570;2022-11-15T17:28:47;96933.66;;;12.62;99.58
20987;BME280;10652;50.306;8.570;2022-11-15T17:32:49;96925.66;;;12.63;99.87
20987;BME280;10652;50.306;8.570;2022-11-15T17:36:51;96929.47;;;12.72;100.00
20987;BME280;10652;50.306;8.570;2022-11-15T17:41:23;96924.88;;;12.75;100.00
20987;BME280;10652;50.306;8.570;2022-11-15T17:45:25;96920.63;;;12.73;99.98
20987;BME280;10652;50.306;8.570;2022-11-15T17:49:27;96916.22;;;12.73;99.70
20987;BME280;10652;50.306;8.570;2022-11-15T17:53:34;96910.34;;;12.70;98.98
20987;BME280;10652;50.306;8.570;2022-11-15T17:57:37;96913.19;;;12.67;99.00
20987;BME280;10652;50.306;8.570;2022-11-15T18:01:39;96909.06;;;12.63;99.27
20987;BME280;10652;50.306;8.570;2022-11-15T18:05:41;96909.06;;;12.63;99.37
20987;BME280;10652;50.306;8.570;2022-11-15T18:09:44;96905.47;;;12.64;99.79
20987;BME280;10652;50.306;8.570;2022-11-15T18:13:49;96903.59;;;12.66;98.61
20987;BME280;10652;50.306;8.570;2022-11-15T18:17:53;96893.31;;;12.63;97.88
20987;BME280;10652;50.306;8.570;2022-11-15T18:22:01;96903.81;;;12.63;97.24
20987;BME280;10652;50.306;8.570;2022-11-15T18:26:06;96901.91;;;12.65;97.13
20987;BME280;10652;50.306;8.570;2022-11-15T18:30:09;96893.09;;;12.66;96.74
20987;BME280;10652;50.306;8.570;2022-11-15T18:34:11;96900.91;;;12.67;96.18
20987;BME280;10652;50.306;8.570;2022-11-15T18:38:13;96891.19;;;12.68;95.75
20987;BME280;10652;50.306;8.570;2022-11-15T18:42:15;96886.91;;;12.67;95.39
20987;BME280;10652;50.306;8.570;2022-11-15T18:46:19;96881.75;;;12.65;95.55
20987;BME280;10652;50.306;8.570;2022-11-15T18:50:21;96887.53;;;12.70;95.46
20987;BME280;10652;50.306;8.570;2022-11-15T18:54:23;96875.97;;;12.73;95.16
20987;BME280;10652;50.306;8.570;2022-11-15T18:58:34;96870.00;;;12.71;94.72
20987;BME280;10652;50.306;8.570;2022-11-15T19:02:36;96862.13;;;12.71;94.60
20987;BME280;10652;50.306;8.570;2022-11-15T19:06:40;96854.44;;;12.68;94.70
20987;BME280;10652;50.306;8.570;2022-11-15T19:10:43;96857.28;;;12.65;94.80
20987;BME280;10652;50.306;8.570;2022-11-15T19:14:45;96846.97;;;12.62;95.16
20987;BME280;10652;50.306;8.570;2022-11-15T19:18:47;96852.09;;;12.63;95.53
20987;BME280;10652;50.306;8.570;2022-11-15T19:22:53;96856.56;;;12.63;95.67
20987;BME280;10652;50.306;8.570;2022-11-15T19:26:55;96846.13;;;12.61;95.92
20987;BME280;10652;50.306;8.570;2022-11-15T19:31:09;96846.34;;;12.58;96.19
20987;BME280;10652;50.306;8.570;2022-11-15T19:35:12;96839.50;;;12.56;96.26
20987;BME280;10652;50.306;8.570;2022-11-15T19:39:14;96836.97;;;12.54;96.76
20987;BME280;10652;50.306;8.570;2022-11-15T19:43:18;96830.91;;;12.54;96.88
20987;BME280;10652;50.306;8.570;2022-11-15T19:47:20;96824.59;;;12.56;96.80
20987;BME280;10652;50.306;8.570;2022-11-15T19:51:24;96821.88;;;12.58;96.49
20987;BME280;10652;50.306;8.570;2022-11-15T19:55:27;96825.44;;;12.57;96.14
20987;BME280;10652;50.306;8.570;2022-11-15T19:59:29;96825.53;;;12.55;96.28
20987;BME280;10652;50.306;8.570;2022-11-15T20:03:32;96820.19;;;12.57;96.14
20987;BME280;10652;50.306;8.570;2022-11-15T20:07:35;96812.09;;;12.60;97.23
20987;BME280;10652;50.306;8.570;2022-11-15T20:11:38;96814.72;;;12.60;96.33
20987;BME280;10652;50.306;8.570;2022-11-15T20:15:41;96803.59;;;12.56;96.04
20987;BME280;10652;50.306;8.570;2022-11-15T20:19:43;96802.75;;;12.56;95.68
20987;BME280;10652;50.306;8.570;2022-11-15T20:23:46;96799.38;;;12.54;95.96
20987;BME280;10652;50.306;8.570;2022-11-15T20:27:48;96799.38;;;12.54;96.04
20987;BME280;10652;50.306;8.570;2022-11-15T20:31:50;96796.94;;;12.51;96.09
20987;BME280;10652;50.306;8.570;2022-11-15T20:35:53;96792.53;;;12.51;96.57
20987;BME280;10652;50.306;8.570;2022-11-15T20:39:55;96800.41;;;12.51;97.02
20987;BME280;10652;50.306;8.570;2022-11-15T20:43:57;96795.25;;;12.49;97.36
20987;BME280;10652;50.306;8.570;2022-11-15T20:47:59;96795.38;;;12.48;97.58
20987;BME280;10652;50.306;8.570;2022-11-15T20:52:01;96785.72;;;12.48;97.98
20987;BME280;10652;50.306;8.570;2022-11-15T20:56:06;96780.47;;;12.48;98.07
20987;BME280;10652;50.306;8.570;2022-11-15T21:00:09;96774.47;;;12.46;98.14
20987;BME280;10652;50.306;8.570;2022-11-15T21:04:11;96775.41;;;12.45;98.64
20987;BME280;10652;50.306;8.570;2022-11-15T21:08:13;96771.00;;;12.46;99.37
20987;BME280;10652;50.306;8.570;2022-11-15T21:12:15;96770.38;;;12.42;99.47
20987;BME280;10652;50.306;8.570;2022-11-15T21:16:18;96760.72;;;12.43;99.77
20987;BME280;10652;50.306;8.570;2022-11-15T21:20:20;96754.19;;;12.36;99.42
20987;BME280;10652;50.306;8.570;2022-11-15T21:24:22;96742.94;;;12.34;100.00
20987;BME280;10652;50.306;8.570;2022-11-15T21:28:25;96740.75;;;12.40;100.00
20987;BME280;10652;50.306;8.570;2022-11-15T21:32:27;96725.44;;;12.34;100.00
20987;BME280;10652;50.306;8.570;2022-11-15T21:36:30;96728.97;;;12.21;100.00
20987;BME280;10652;50.306;8.570;2022-11-15T21:40:32;96728.34;;;12.17;100.00
20987;BME280;10652;50.306;8.570;2022-11-15T21:44:34;96720.97;;;12.10;100.00
20987;BME280;10652;50.306;8.570;2022-11-15T21:48:37;96715.91;;;12.07;100.00
20987;BME280;10652;50.306;8.570;2022-11-15T21:52:39;96718.63;;;12.05;100.00
20987;BME280;10652;50.306;8.570;2022-11-15T21:56:41;96715.72;;;12.10;100.00
20987;BME280;10652;50.306;8.570;2022-11-15T22:00:44;96719.94;;;12.12;100.00
20987;BME280;10652;50.306;8.570;2022-11-15T22:05:06;96712.91;;;12.13;100.00
20987;BME280;10652;50.306;8.570;2022-11-15T22:09:08;96717.09;;;12.15;100.00
20987;BME280;10652;50.306;8.570;2022-11-15T22:13:10;96712.06;;;12.12;100.00
20987;BME280;10652;50.306;8.570;2022-11-15T22:17:12;96698.59;;;12.04;100.00
20987;BME280;10652;50.306;8.570;2022-11-15T22:21:16;96698.38;;;11.94;100.00
20987;BME280;10652;50.306;8.570;2022-11-15T22:25:18;96700.88;;;11.96;100.00
20987;BME280;10652;50.306;8.570;2022-11-15T22:29:20;96687.75;;;11.83;100.00
20987;BME280;10652;50.306;8.570;2022-11-15T22:33:24;96680.56;;;11.73;100.00
20987;BME280;10652;50.306;8.570;2022-11-15T22:37:26;96674.56;;;11.71;100.00
20987;BME280;10652;50.306;8.570;2022-11-15T22:41:29;96675.22;;;11.74;100.00
20987;BME280;10652;50.306;8.570;2022-11-15T22:45:31;96666.44;;;11.75;100.00
20987;BME280;10652;50.306;8.570;2022-11-15T22:49:33;96680.38;;;11.76;100.00
20987;BME280;10652;50.306;8.570;2022-11-15T22:53:35;96671.38;;;11.80;100.00
20987;BME280;10652;50.306;8.570;2022-11-15T22:57:37;96677.47;;;11.80;100.00
20987;BME280;10652;50.306;8.570;2022-11-15T23:01:40;96666.31;;;11.77;100.00
20987;BME280;10652;50.306;8.570;2022-11-15T23:05:42;96657.13;;;11.84;100.00
20987;BME280;10652;50.306;8.570;2022-11-15T23:09:44;96658.59;;;11.88;100.00
20987;BME280;10652;50.306;8.570;2022-11-15T23:13:52;96647.25;;;11.87;100.00
20987;BME280;10652;50.306;8.570;2022-11-15T23:17:55;96647.25;;;11.87;100.00
20987;BME280;10652;50.306;8.570;2022-11-15T23:21:57;96641.28;;;11.85;100.00
20987;BME280;10652;50.306;8.570;2022-11-15T23:26:18;96640.63;;;11.82;100.00
20987;BME280;10652;50.306;8.570;2022-11-15T23:30:20;96642.53;;;11.80;100.00
20987;BME280;10652;50.306;8.570;2022-11-15T23:34:43;96639.16;;;11.78;100.00
20987;BME280;10652;50.306;8.570;2022-11-15T23:38:45;96638.31;;;11.77;100.00
20987;BME280;10652;50.306;8.570;2022-11-15T23:42:47;96633.91;;;11.78;100.00
20987;BME280;10652;50.306;8.570;2022-11-15T23:46:51;96628.56;;;11.79;100.00
20987;BME280;10652;50.306;8.570;2022-11-15T23:50:53;96624.03;;;11.81;100.00
20987;BME280;10652;50.306;8.570;2022-11-15T23:54:55;96616.31;;;11.80;100.00
20987;BME280;10652;50.306;8.570;2022-11-15T23:58:57;96616.31;;;11.80;100.00
